createdAt,value
2023-05-21T00:15:09.013Z,15
2023-05-21T00:30:51.947Z,16.79
2023-05-21T00:46:34.538Z,17.29
2023-05-21T01:02:16.902Z,17.1
2023-05-21T01:17:59.441Z,16.4
2023-05-21T01:33:42.099Z,16.9
2023-05-21T01:49:24.148Z,19
2023-05-21T02:05:06.800Z,18.5
2023-05-21T02:20:48.950Z,22.8
2023-05-21T02:36:31.706Z,21.5
2023-05-21T02:52:13.799Z,25.6
2023-05-21T03:07:56.425Z,24.6
2023-05-21T03:23:39.365Z,26.6
2023-05-21T03:39:22.314Z,31.6
2023-05-21T03:55:04.459Z,31.6
2023-05-21T04:10:46.732Z,29.4
2023-05-21T04:26:28.774Z,26.2
2023-05-21T04:42:11.348Z,24
2023-05-21T04:57:54.237Z,23.2
2023-05-21T05:13:36.395Z,21.2
2023-05-21T05:29:18.683Z,20
2023-05-21T05:45:01.209Z,19.4
2023-05-21T06:00:44.176Z,18
2023-05-21T06:16:26.525Z,16.79
2023-05-21T06:32:08.867Z,16
2023-05-21T06:47:51.190Z,16.7
2023-05-21T07:03:33.835Z,16.5
2023-05-21T07:19:16.448Z,15.7
2023-05-21T07:34:58.783Z,16.4
2023-05-21T07:50:41.537Z,13.5
2023-05-21T08:06:23.791Z,12.3
2023-05-21T08:22:06.603Z,10.1
2023-05-21T08:37:48.592Z,8.89
2023-05-21T08:53:30.684Z,7.8
2023-05-21T09:09:12.813Z,7.5
2023-05-21T09:24:55.420Z,6.9
2023-05-21T09:40:38.341Z,5.9
2023-05-21T09:56:20.810Z,5.3
2023-05-21T10:12:03.440Z,4.69
2023-05-21T10:27:45.520Z,4.69
2023-05-21T10:43:28.603Z,4.5
2023-05-21T10:59:10.635Z,3.8
2023-05-21T11:30:35.437Z,4
2023-05-21T11:46:17.455Z,5.2
2023-05-21T12:02:00.295Z,4.1
2023-05-21T12:17:42.785Z,3.6
2023-05-21T12:33:24.777Z,3.9
2023-05-21T12:49:07.082Z,4.1
2023-05-21T13:04:49.138Z,3.5
2023-05-21T13:20:31.329Z,3.6
2023-05-21T13:36:13.790Z,3.7
2023-05-21T13:51:56.629Z,3.8
2023-05-21T14:07:38.575Z,3.9
2023-05-21T14:23:21.188Z,3.8
2023-05-21T14:39:02.793Z,3.7
2023-05-21T14:54:45.251Z,3.4
2023-05-21T15:10:27.759Z,4
2023-05-21T15:26:09.786Z,3.5
2023-05-21T15:26:56.988Z,3.3
2023-05-21T15:42:39.338Z,3.5
2023-05-21T15:58:22.051Z,3.3
2023-05-21T16:14:04.138Z,3.5
2023-05-21T16:29:46.505Z,3.5
2023-05-21T16:45:28.674Z,3.1
2023-05-21T17:01:11.492Z,3.4
2023-05-21T17:16:54.238Z,4.19
2023-05-21T17:32:37.078Z,4
2023-05-21T17:48:19.925Z,3.9
2023-05-21T18:04:02.226Z,3.7
2023-05-21T18:19:45.007Z,3.9
2023-05-21T18:35:27.751Z,4.19
2023-05-21T18:51:10.518Z,4
2023-05-21T19:06:52.660Z,4.1
2023-05-21T19:22:35.054Z,4
2023-05-21T19:38:17.653Z,4
2023-05-21T19:54:00.558Z,4.5
2023-05-21T20:09:43.157Z,4.19
2023-05-21T20:25:25.755Z,3.7
2023-05-21T20:41:08.082Z,3.8
2023-05-21T20:56:50.687Z,4.1
2023-05-21T21:12:33.623Z,4.19
2023-05-21T21:28:15.812Z,4.1
2023-05-21T21:43:58.156Z,3.8
2023-05-21T21:59:40.944Z,4.1
2023-05-21T22:15:23.370Z,4.6
2023-05-21T22:31:06.244Z,4.4
2023-05-21T22:46:48.543Z,5.3
2023-05-21T23:02:30.815Z,3.9
2023-05-21T23:18:13.281Z,3.8
2023-05-21T23:33:55.909Z,3.8
2023-05-21T23:49:38.045Z,3.8
